Statenville, Georgia
Current Conditions -  °F | °C
As of 7:53 AM on Saturday 25 Oct 2014 (Local Time) from KVLD Reporting Station
Haze Haze  
Wind Chill: 44°   Ceiling: Unl
Heat Index: 44°   Visibility: 4mi
Dew Point: 40°   Wind: 0mph
Humidity: 85%   Direction: NA
Pressure: 30.02"   Gusts: NA
Location:  30.7°N, 83.03°W
Report Text: KVLD 251153Z 00000KT 4SM BR CLR 07/04 A3002 RMK AO2 SLP174 T00670044 10089 20067 53009
Loading
Personal Weather Stations






























Interactive Weather Map
Tropical Storm Tracking
New forecast layout! Learn more

10-Day Weather Forecast

Advertisements
Track Severe Weather on mobile